Time;durP1;ratioP1;P1;durP2;ratioP2;P2;SDS_P1;SDS_P2;PMS_P1;PMS_P2;Temp;Humidity;BMP_temperature;BMP_pressure;BME280_temperature;BME280_humidity;BME280_pressure;Samples;Min_cycle;Max_cycle;Signal;HPM_P1;HPM_P2
2022/04/21 00:00:04;;;;;;;6.67;5.93;;;;;;;;;;5002434;28;20210;-71
2022/04/21 00:02:29;;;;;;;10.40;6.00;;;;;;;;;;4999268;28;20190;-70
2022/04/21 00:04:55;;;;;;;7.63;6.70;;;;;;;;;;5008530;28;20194;-70
2022/04/21 00:07:22;;;;;;;8.07;6.27;;;;;;;;;;5007082;28;20175;-71
2022/04/21 00:09:47;;;;;;;8.37;6.13;;;;;;;;;;5009581;28;20226;-71
2022/04/21 00:12:12;;;;;;;7.10;5.97;;;;;;;;;;4998047;28;20184;-69
2022/04/21 00:14:38;;;;;;;10.87;6.80;;;;;;;;;;5009807;28;20178;-70
2022/04/21 00:17:03;;;;;;;7.00;6.30;;;;;;;;;;5005192;28;20187;-69
2022/04/21 00:19:28;;;;;;;7.57;6.27;;;;;;;;;;5008435;28;20225;-72
2022/04/21 00:24:37;;;;;;;9.07;6.20;;;;;;;;;;5004903;28;20185;-69
2022/04/21 00:27:02;;;;;;;10.23;6.33;;;;;;;;;;5012899;28;20257;-71
2022/04/21 00:29:27;;;;;;;8.17;6.53;;;;;;;;;;5014541;28;20187;-70
2022/04/21 00:31:53;;;;;;;9.27;6.73;;;;;;;;;;5010556;28;20253;-71
2022/04/21 00:34:22;;;;;;;12.00;6.37;;;;;;;;;;5013946;28;20349;-71
2022/04/21 00:36:47;;;;;;;6.17;5.57;;;;;;;;;;5001422;28;20175;-70
2022/04/21 00:39:12;;;;;;;8.80;6.07;;;;;;;;;;5010729;28;20170;-69
2022/04/21 00:41:40;;;;;;;7.87;6.17;;;;;;;;;;5010378;28;20205;-70
2022/04/21 00:44:05;;;;;;;11.17;7.80;;;;;;;;;;5009652;28;20183;-70
2022/04/21 00:46:31;;;;;;;10.43;8.03;;;;;;;;;;5014796;28;20667;-71
2022/04/21 00:48:56;;;;;;;10.47;6.87;;;;;;;;;;5012994;28;20201;-70
2022/04/21 00:51:22;;;;;;;8.37;6.73;;;;;;;;;;5008074;28;20228;-70
2022/04/21 00:53:48;;;;;;;11.73;6.03;;;;;;;;;;5006607;28;20332;-70
2022/04/21 00:56:13;;;;;;;8.40;6.30;;;;;;;;;;5015024;28;20716;-70
2022/04/21 00:58:38;;;;;;;8.23;6.30;;;;;;;;;;5012322;28;20185;-70
2022/04/21 01:02:46;;;;;;;7.43;6.40;;;;;;;;;;5014438;28;20202;-70
2022/04/21 01:03:49;;;;;;;6.83;5.97;;;;;;;;;;5010600;28;20178;-70
2022/04/21 01:06:14;;;;;;;9.60;7.37;;;;;;;;;;5009694;28;20186;-70
2022/04/21 01:08:39;;;;;;;9.20;7.20;;;;;;;;;;5015893;28;20253;-70
2022/04/21 01:11:04;;;;;;;11.03;7.07;;;;;;;;;;5005894;28;20238;-71
2022/04/21 01:13:30;;;;;;;8.70;6.70;;;;;;;;;;5014631;28;20186;-71
2022/04/21 01:15:55;;;;;;;11.43;7.03;;;;;;;;;;5006529;28;20178;-70
2022/04/21 01:18:27;;;;;;;9.30;7.03;;;;;;;;;;5014183;28;20174;-70
2022/04/21 01:20:53;;;;;;;10.33;7.07;;;;;;;;;;5010864;28;20689;-72
2022/04/21 01:23:18;;;;;;;8.97;7.30;;;;;;;;;;5011256;28;20258;-69
2022/04/21 01:25:43;;;;;;;8.43;7.03;;;;;;;;;;5015711;28;20672;-69
2022/04/21 01:28:09;;;;;;;8.10;6.73;;;;;;;;;;5011821;28;20179;-69
2022/04/21 01:30:35;;;;;;;10.07;7.27;;;;;;;;;;5015180;28;20297;-70
2022/04/21 01:33:00;;;;;;;10.67;7.30;;;;;;;;;;5016372;28;20329;-70
2022/04/21 01:35:25;;;;;;;10.43;6.83;;;;;;;;;;5010184;28;20192;-71
2022/04/21 01:43:18;;;;;;;9.70;7.47;;;;;;;;;;5008919;28;20202;-69
2022/04/21 01:45:44;;;;;;;8.67;7.77;;;;;;;;;;5010693;28;20634;-69
2022/04/21 01:48:09;;;;;;;8.17;6.73;;;;;;;;;;5008722;28;20179;-70
2022/04/21 01:50:34;;;;;;;7.93;6.83;;;;;;;;;;5001722;28;20291;-69
2022/04/21 01:53:00;;;;;;;9.63;7.70;;;;;;;;;;5005390;28;20190;-68
2022/04/21 01:55:25;;;;;;;8.97;7.27;;;;;;;;;;5018909;28;20600;-69
2022/04/21 01:57:50;;;;;;;10.03;7.60;;;;;;;;;;5009695;28;20187;-69
2022/04/21 02:00:16;;;;;;;8.37;7.30;;;;;;;;;;5003615;28;20257;-69
2022/04/21 02:02:42;;;;;;;9.07;6.83;;;;;;;;;;5004007;28;20270;-69
2022/04/21 02:05:07;;;;;;;10.70;7.33;;;;;;;;;;5005237;28;20195;-69
2022/04/21 02:07:32;;;;;;;11.07;7.70;;;;;;;;;;5003845;28;20183;-69
2022/04/21 02:09:57;;;;;;;8.30;7.13;;;;;;;;;;5013454;28;20545;-68
2022/04/21 02:12:23;;;;;;;7.93;7.10;;;;;;;;;;5002951;28;20183;-69
2022/04/21 02:14:49;;;;;;;10.97;8.13;;;;;;;;;;5007740;28;20191;-69
2022/04/21 02:17:14;;;;;;;10.27;7.43;;;;;;;;;;5011021;28;20183;-71
2022/04/21 02:19:39;;;;;;;12.27;8.00;;;;;;;;;;5007265;28;20673;-71
2022/04/21 02:22:04;;;;;;;9.27;7.20;;;;;;;;;;5007559;28;20214;-70
2022/04/21 02:24:30;;;;;;;9.97;7.70;;;;;;;;;;5010872;28;20649;-69
2022/04/21 02:26:55;;;;;;;8.77;7.07;;;;;;;;;;5010289;28;20174;-69
2022/04/21 02:29:20;;;;;;;9.30;6.60;;;;;;;;;;5011646;28;20593;-69
2022/04/21 02:31:45;;;;;;;11.23;7.63;;;;;;;;;;5012118;28;20215;-69
2022/04/21 02:34:10;;;;;;;12.13;7.10;;;;;;;;;;5012434;28;20233;-70
2022/04/21 02:36:36;;;;;;;10.57;7.90;;;;;;;;;;5010177;28;20672;-70
2022/04/21 02:39:01;;;;;;;9.20;7.30;;;;;;;;;;5005208;28;20176;-70
2022/04/21 02:41:26;;;;;;;8.73;7.20;;;;;;;;;;5009427;28;20195;-70
2022/04/21 02:43:52;;;;;;;11.73;8.23;;;;;;;;;;5011192;28;20179;-70
2022/04/21 02:46:17;;;;;;;8.73;6.73;;;;;;;;;;5011259;28;20649;-69
2022/04/21 02:48:42;;;;;;;9.87;7.77;;;;;;;;;;5010007;28;20171;-70
2022/04/21 02:51:08;;;;;;;10.20;7.13;;;;;;;;;;5011547;28;20213;-71
2022/04/21 02:59:01;;;;;;;10.23;7.20;;;;;;;;;;5004169;28;20194;-71
2022/04/21 03:01:27;;;;;;;9.07;7.27;;;;;;;;;;5006664;28;20214;-70
2022/04/21 03:03:54;;;;;;;11.93;7.53;;;;;;;;;;5008774;28;20545;-70
2022/04/21 03:06:19;;;;;;;11.10;7.67;;;;;;;;;;5010392;28;20632;-69
2022/04/21 03:08:44;;;;;;;9.33;7.37;;;;;;;;;;5007677;28;20257;-69
2022/04/21 03:11:10;;;;;;;12.07;7.80;;;;;;;;;;5009822;28;20291;-69
2022/04/21 03:13:35;;;;;;;10.93;8.93;;;;;;;;;;5010911;28;20183;-69
2022/04/21 03:16:00;;;;;;;10.17;7.87;;;;;;;;;;5011637;28;20649;-72
2022/04/21 03:18:25;;;;;;;10.67;8.27;;;;;;;;;;5010387;28;20194;-70
2022/04/21 03:26:18;;;;;;;10.17;7.47;;;;;;;;;;5011299;28;20182;-68
2022/04/21 03:28:44;;;;;;;9.97;7.27;;;;;;;;;;5008862;28;20190;-69
2022/04/21 03:31:09;;;;;;;10.80;7.80;;;;;;;;;;5010947;28;20206;-69
2022/04/21 03:33:34;;;;;;;9.47;7.73;;;;;;;;;;5010922;28;20270;-71
2022/04/21 03:35:59;;;;;;;10.67;7.70;;;;;;;;;;5011182;28;20211;-69
2022/04/21 03:38:24;;;;;;;11.23;7.90;;;;;;;;;;5010759;28;20663;-68
2022/04/21 03:40:50;;;;;;;11.77;7.83;;;;;;;;;;5010801;28;20210;-69
2022/04/21 03:43:15;;;;;;;9.53;7.77;;;;;;;;;;5005841;28;20565;-70
2022/04/21 03:45:40;;;;;;;10.50;7.73;;;;;;;;;;5008154;28;20278;-69
2022/04/21 03:48:05;;;;;;;9.10;7.53;;;;;;;;;;5008757;28;20182;-69
2022/04/21 03:50:31;;;;;;;9.63;7.83;;;;;;;;;;5009840;28;20198;-69
2022/04/21 03:52:57;;;;;;;10.83;8.17;;;;;;;;;;5008218;28;20178;-69
2022/04/21 03:55:22;;;;;;;9.47;7.40;;;;;;;;;;5007740;28;20205;-69
2022/04/21 03:57:47;;;;;;;9.37;7.63;;;;;;;;;;5007779;28;20183;-69
2022/04/21 04:00:12;;;;;;;11.80;7.77;;;;;;;;;;5008553;28;20280;-69
2022/04/21 04:02:37;;;;;;;11.67;7.97;;;;;;;;;;5007130;28;20190;-69
2022/04/21 04:05:03;;;;;;;10.83;7.37;;;;;;;;;;5006303;28;20348;-68
2022/04/21 04:12:56;;;;;;;9.67;7.20;;;;;;;;;;5009494;28;20237;-71
2022/04/21 04:15:21;;;;;;;7.03;6.33;;;;;;;;;;5000960;28;20657;-68
2022/04/21 04:17:46;;;;;;;11.50;7.83;;;;;;;;;;5007659;28;20202;-71
2022/04/21 04:20:12;;;;;;;9.20;7.73;;;;;;;;;;5008671;28;20234;-68
2022/04/21 04:22:39;;;;;;;8.33;7.53;;;;;;;;;;5007369;28;20552;-68
2022/04/21 04:25:05;;;;;;;10.90;8.63;;;;;;;;;;5009290;28;20175;-68
2022/04/21 04:27:30;;;;;;;9.27;7.77;;;;;;;;;;5004741;28;20563;-69
2022/04/21 04:29:55;;;;;;;11.93;7.90;;;;;;;;;;5010972;28;20675;-69
2022/04/21 04:32:20;;;;;;;10.37;7.83;;;;;;;;;;5009577;28;20210;-71
2022/04/21 04:34:46;;;;;;;9.50;7.43;;;;;;;;;;5009394;28;20203;-69
2022/04/21 04:37:11;;;;;;;10.23;7.93;;;;;;;;;;5004955;28;20198;-68
2022/04/21 04:39:36;;;;;;;11.57;7.47;;;;;;;;;;5007890;28;20285;-69
2022/04/21 04:42:44;;;;;;;8.17;7.30;;;;;;;;;;5010463;28;20179;-68
2022/04/21 04:47:35;;;;;;;10.20;7.67;;;;;;;;;;5001366;28;20561;-71
2022/04/21 04:50:00;;;;;;;9.13;7.37;;;;;;;;;;5010085;28;20218;-69
2022/04/21 04:52:25;;;;;;;9.63;8.10;;;;;;;;;;5017106;28;20193;-69
2022/04/21 04:54:50;;;;;;;9.00;7.10;;;;;;;;;;4997731;28;20726;-71
2022/04/21 04:57:15;;;;;;;9.93;7.80;;;;;;;;;;5000862;28;20186;-69
2022/04/21 04:59:41;;;;;;;10.00;7.07;;;;;;;;;;5005565;28;20768;-70
2022/04/21 05:02:06;;;;;;;8.20;7.40;;;;;;;;;;5000554;28;20187;-69
2022/04/21 05:04:31;;;;;;;9.40;6.93;;;;;;;;;;5004264;28;20288;-68
2022/04/21 05:06:57;;;;;;;13.27;7.53;;;;;;;;;;5005012;28;20260;-70
2022/04/21 05:09:23;;;;;;;9.70;7.30;;;;;;;;;;5003197;28;20183;-71
2022/04/21 05:11:52;;;;;;;12.17;9.43;;;;;;;;;;5009499;28;20203;-68
2022/04/21 05:14:18;;;;;;;16.57;7.60;;;;;;;;;;5011182;28;20657;-71
2022/04/21 05:16:43;;;;;;;9.90;7.03;;;;;;;;;;5012026;28;20190;-70
2022/04/21 05:19:15;;;;;;;8.63;7.00;;;;;;;;;;5005255;28;20175;-70
2022/04/21 05:21:41;;;;;;;9.37;6.70;;;;;;;;;;5009119;28;20633;-69
2022/04/21 05:24:07;;;;;;;8.93;7.27;;;;;;;;;;5012900;28;20285;-69
2022/04/21 05:26:32;;;;;;;8.17;6.73;;;;;;;;;;5012947;28;20209;-69
2022/04/21 05:28:59;;;;;;;13.03;9.33;;;;;;;;;;5011847;28;20167;-71
2022/04/21 05:31:25;;;;;;;9.27;6.93;;;;;;;;;;5002663;28;20218;-69
2022/04/21 05:33:50;;;;;;;9.67;7.00;;;;;;;;;;5015869;28;20206;-70
2022/04/21 05:36:16;;;;;;;8.83;7.47;;;;;;;;;;5013589;28;20614;-70
2022/04/21 05:38:42;;;;;;;10.13;7.00;;;;;;;;;;5004906;28;20278;-70
2022/04/21 05:41:07;;;;;;;7.50;6.67;;;;;;;;;;5008596;28;20598;-70
2022/04/21 05:43:42;;;;;;;9.50;7.20;;;;;;;;;;5008584;28;20206;-71
2022/04/21 05:46:08;;;;;;;8.83;7.13;;;;;;;;;;5008945;28;20174;-71
2022/04/21 05:48:37;;;;;;;9.90;7.10;;;;;;;;;;5003054;28;20607;-71
2022/04/21 05:51:03;;;;;;;9.53;6.40;;;;;;;;;;5004315;28;20204;-70
2022/04/21 05:53:29;;;;;;;12.10;7.70;;;;;;;;;;5015351;28;20194;-70
2022/04/21 05:55:54;;;;;;;9.53;6.67;;;;;;;;;;5012189;28;20237;-68
2022/04/21 05:58:20;;;;;;;8.10;6.10;;;;;;;;;;5026843;28;20182;-69
2022/04/21 06:00:45;;;;;;;8.57;6.20;;;;;;;;;;5008719;28;20214;-70
2022/04/21 06:03:11;;;;;;;7.87;6.20;;;;;;;;;;5005522;28;20174;-70
2022/04/21 06:05:36;;;;;;;11.37;6.70;;;;;;;;;;5011971;28;20182;-70
2022/04/21 06:08:02;;;;;;;7.70;6.30;;;;;;;;;;5010062;28;20225;-70
2022/04/21 06:10:27;;;;;;;10.23;6.87;;;;;;;;;;5006435;28;20202;-70
2022/04/21 06:12:53;;;;;;;7.63;6.43;;;;;;;;;;5003614;28;20251;-71
2022/04/21 06:15:18;;;;;;;7.30;5.43;;;;;;;;;;5001516;28;20175;-71
2022/04/21 06:17:45;;;;;;;8.77;6.10;;;;;;;;;;5000770;28;20274;-72
2022/04/21 06:20:10;;;;;;;8.60;5.83;;;;;;;;;;5001405;28;20615;-68
2022/04/21 06:22:35;;;;;;;8.37;5.87;;;;;;;;;;5009681;28;20258;-70
2022/04/21 06:25:00;;;;;;;10.73;6.73;;;;;;;;;;5008979;28;20274;-70
2022/04/21 06:27:26;;;;;;;7.37;5.80;;;;;;;;;;5012610;28;20182;-70
2022/04/21 06:29:51;;;;;;;8.40;5.43;;;;;;;;;;5009691;28;20199;-70
2022/04/21 06:32:16;;;;;;;7.40;5.93;;;;;;;;;;5010376;28;20618;-70
2022/04/21 06:34:41;;;;;;;6.80;5.93;;;;;;;;;;5007636;28;20261;-71
2022/04/21 06:37:06;;;;;;;9.87;5.73;;;;;;;;;;5016628;28;20596;-70
2022/04/21 06:39:31;;;;;;;6.67;5.17;;;;;;;;;;5011933;28;20219;-70
2022/04/21 06:41:57;;;;;;;6.30;5.47;;;;;;;;;;5013175;28;20717;-70
2022/04/21 06:49:50;;;;;;;7.90;5.50;;;;;;;;;;5005959;28;20619;-70
2022/04/21 06:52:15;;;;;;;6.37;5.40;;;;;;;;;;5013285;28;20202;-70
2022/04/21 06:54:40;;;;;;;8.00;5.23;;;;;;;;;;5004223;28;20187;-70
2022/04/21 06:57:05;;;;;;;7.10;5.90;;;;;;;;;;5010053;28;20613;-71
2022/04/21 06:59:30;;;;;;;5.20;4.70;;;;;;;;;;5006758;28;20211;-71
2022/04/21 07:01:56;;;;;;;6.47;5.53;;;;;;;;;;5010324;28;20639;-70
2022/04/21 07:04:21;;;;;;;7.27;5.70;;;;;;;;;;5005120;28;20171;-70
2022/04/21 07:06:46;;;;;;;5.63;5.03;;;;;;;;;;5012589;28;20203;-70
2022/04/21 07:09:12;;;;;;;7.25;5.28;;;;;;;;;;5012162;28;20197;-68
2022/04/21 07:11:40;;;;;;;7.13;4.82;;;;;;;;;;5011394;28;20201;-71
2022/04/21 07:14:05;;;;;;;6.43;4.80;;;;;;;;;;5009375;28;20202;-70
2022/04/21 07:16:31;;;;;;;9.27;4.95;;;;;;;;;;4998261;28;20183;-69
2022/04/21 07:18:56;;;;;;;6.35;5.15;;;;;;;;;;5008788;28;20218;-69
2022/04/21 07:21:21;;;;;;;7.47;4.93;;;;;;;;;;4995284;28;20241;-70
2022/04/21 07:23:46;;;;;;;6.22;5.05;;;;;;;;;;5007284;28;20178;-69
2022/04/21 07:26:11;;;;;;;6.30;5.00;;;;;;;;;;5012252;28;20179;-70
2022/04/21 07:28:37;;;;;;;5.88;4.47;;;;;;;;;;5010369;28;20830;-70
2022/04/21 07:31:03;;;;;;;5.53;5.00;;;;;;;;;;5010557;28;20293;-69
2022/04/21 07:33:28;;;;;;;6.05;4.63;;;;;;;;;;5008548;28;20220;-70
2022/04/21 07:35:53;;;;;;;5.55;4.20;;;;;;;;;;5012379;28;20175;-70
2022/04/21 07:38:18;;;;;;;6.17;4.57;;;;;;;;;;5010762;28;20586;-70
2022/04/21 07:40:43;;;;;;;4.53;3.67;;;;;;;;;;5011770;28;20456;-69
2022/04/21 07:43:09;;;;;;;5.43;4.38;;;;;;;;;;5011561;28;20664;-69
2022/04/21 07:45:40;;;;;;;6.50;4.22;;;;;;;;;;5010635;28;20249;-70
2022/04/21 07:48:05;;;;;;;7.85;4.53;;;;;;;;;;5011296;28;20186;-68
2022/04/21 07:50:30;;;;;;;9.30;4.32;;;;;;;;;;5008636;28;20203;-69
2022/04/21 07:53:14;;;;;;;5.88;4.32;;;;;;;;;;5012195;28;20251;-69
2022/04/21 07:55:42;;;;;;;6.60;4.13;;;;;;;;;;5006732;28;20573;-69
2022/04/21 07:58:08;;;;;;;4.65;4.25;;;;;;;;;;5009302;28;20216;-69
2022/04/21 08:00:36;;;;;;;4.82;4.30;;;;;;;;;;5009778;28;20592;-69
2022/04/21 08:03:01;;;;;;;4.05;3.60;;;;;;;;;;5011514;28;20551;-69
2022/04/21 08:05:26;;;;;;;5.45;3.97;;;;;;;;;;5009821;28;20229;-69
2022/04/21 08:07:52;;;;;;;4.03;3.65;;;;;;;;;;5009301;28;20218;-68
2022/04/21 08:10:17;;;;;;;4.85;3.95;;;;;;;;;;5008107;28;20452;-69
2022/04/21 08:12:44;;;;;;;5.03;4.10;;;;;;;;;;5011684;28;20175;-70
2022/04/21 08:15:11;;;;;;;5.32;3.55;;;;;;;;;;5006810;28;20230;-70
2022/04/21 08:17:37;;;;;;;6.75;3.70;;;;;;;;;;5009845;28;20653;-70
2022/04/21 08:20:04;;;;;;;4.93;3.33;;;;;;;;;;5007260;28;21237;-71
2022/04/21 08:22:29;;;;;;;6.10;3.97;;;;;;;;;;4998131;28;20179;-69
2022/04/21 08:33:06;;;;;;;4.43;3.67;;;;;;;;;;5009098;28;20292;-69
2022/04/21 08:35:31;;;;;;;3.87;3.47;;;;;;;;;;5003726;28;20187;-69
2022/04/21 08:37:56;;;;;;;4.82;4.10;;;;;;;;;;5006702;28;20459;-68
2022/04/21 08:40:23;;;;;;;6.32;3.90;;;;;;;;;;5011024;28;20225;-69
2022/04/21 08:42:52;;;;;;;7.05;4.45;;;;;;;;;;5005115;28;21123;-68
2022/04/21 08:45:17;;;;;;;6.78;3.78;;;;;;;;;;5011398;28;20265;-69
2022/04/21 08:47:46;;;;;;;5.95;3.50;;;;;;;;;;5010964;28;20717;-69
2022/04/21 08:50:12;;;;;;;6.65;3.95;;;;;;;;;;5003846;28;20205;-69
2022/04/21 08:52:38;;;;;;;4.18;3.78;;;;;;;;;;5012271;28;20182;-69
2022/04/21 08:55:04;;;;;;;8.43;3.75;;;;;;;;;;5010353;28;20182;-68
2022/04/21 08:57:30;;;;;;;7.53;3.78;;;;;;;;;;5011376;28;20267;-68
2022/04/21 08:59:56;;;;;;;5.82;4.45;;;;;;;;;;5001772;28;20207;-68
2022/04/21 09:02:22;;;;;;;8.32;4.10;;;;;;;;;;5006053;28;20253;-69
2022/04/21 09:04:47;;;;;;;4.05;3.58;;;;;;;;;;5012202;28;20183;-69
2022/04/21 09:07:17;;;;;;;4.45;3.13;;;;;;;;;;5012451;28;20254;-69
2022/04/21 09:10:01;;;;;;;5.95;3.70;;;;;;;;;;5007970;28;20317;-69
2022/04/21 09:12:27;;;;;;;3.70;2.92;;;;;;;;;;5010830;28;20213;-70
2022/04/21 09:14:52;;;;;;;3.33;2.90;;;;;;;;;;5009060;28;20171;-69
2022/04/21 09:17:17;;;;;;;3.30;3.00;;;;;;;;;;5011213;28;20201;-70
2022/04/21 09:19:58;;;;;;;3.60;2.60;;;;;;;;;;5013776;28;20460;-70
2022/04/21 09:22:24;;;;;;;5.60;3.58;;;;;;;;;;5012662;28;20528;-68
2022/04/21 09:24:53;;;;;;;3.65;2.90;;;;;;;;;;5011871;28;20258;-70
2022/04/21 09:27:18;;;;;;;3.10;2.80;;;;;;;;;;5012142;28;20182;-70
2022/04/21 09:29:43;;;;;;;19.35;3.83;;;;;;;;;;5020979;28;20186;-69
2022/04/21 09:32:08;;;;;;;5.82;2.47;;;;;;;;;;5011234;28;20179;-68
2022/04/21 09:34:35;;;;;;;2.88;2.38;;;;;;;;;;5011382;28;20197;-69
2022/04/21 09:37:00;;;;;;;8.00;1.95;;;;;;;;;;5014433;28;20282;-69
2022/04/21 09:39:27;;;;;;;3.23;2.63;;;;;;;;;;5014031;28;20198;-69
2022/04/21 09:41:56;;;;;;;3.15;2.13;;;;;;;;;;5012757;28;20439;-69
2022/04/21 09:47:19;;;;;;;2.60;2.28;;;;;;;;;;5012981;28;20173;-69
2022/04/21 09:49:45;;;;;;;3.40;2.10;;;;;;;;;;5017703;28;20544;-70
2022/04/21 09:52:10;;;;;;;2.33;1.70;;;;;;;;;;5013001;28;20187;-70
2022/04/21 09:54:36;;;;;;;5.18;2.20;;;;;;;;;;5013480;28;20175;-71
2022/04/21 09:57:02;;;;;;;2.10;1.90;;;;;;;;;;5014827;28;20183;-69
2022/04/21 09:59:27;;;;;;;3.67;2.03;;;;;;;;;;5010614;28;20264;-69
2022/04/21 10:01:53;;;;;;;2.63;2.08;;;;;;;;;;5016273;28;20700;-70
2022/04/21 10:04:19;;;;;;;2.40;1.73;;;;;;;;;;5013521;28;20171;-70
2022/04/21 10:06:45;;;;;;;3.15;2.22;;;;;;;;;;5012461;28;20522;-70
2022/04/21 10:09:11;;;;;;;2.60;1.95;;;;;;;;;;5009406;28;20194;-70
2022/04/21 10:11:40;;;;;;;2.38;2.10;;;;;;;;;;5010295;28;20257;-68
2022/04/21 10:14:06;;;;;;;4.18;1.77;;;;;;;;;;5011771;28;20236;-68
2022/04/21 10:16:31;;;;;;;2.10;1.88;;;;;;;;;;5011855;28;20183;-69
2022/04/21 10:18:58;;;;;;;2.50;2.28;;;;;;;;;;5007304;28;20195;-70
2022/04/21 10:21:42;;;;;;;3.90;2.03;;;;;;;;;;5011824;28;20230;-69
2022/04/21 10:24:08;;;;;;;1.85;1.55;;;;;;;;;;5010295;28;20183;-69
2022/04/21 10:26:35;;;;;;;2.25;1.90;;;;;;;;;;5007518;28;20179;-68
2022/04/21 10:29:09;;;;;;;1.95;1.52;;;;;;;;;;5013333;28;20190;-69
2022/04/21 10:31:35;;;;;;;2.80;2.00;;;;;;;;;;5011990;28;20218;-69
2022/04/21 10:34:05;;;;;;;2.10;1.88;;;;;;;;;;5010433;28;20179;-70
2022/04/21 10:36:34;;;;;;;1.77;1.55;;;;;;;;;;5012789;28;20548;-70
2022/04/21 10:39:09;;;;;;;2.10;1.63;;;;;;;;;;5012142;28;20254;-70
2022/04/21 10:41:35;;;;;;;1.73;1.63;;;;;;;;;;5011030;28;20605;-68
2022/04/21 10:44:01;;;;;;;4.30;2.22;;;;;;;;;;5008355;28;20170;-69
2022/04/21 10:46:29;;;;;;;2.53;2.00;;;;;;;;;;5012351;28;20186;-70
2022/04/21 10:48:54;;;;;;;4.20;2.33;;;;;;;;;;5010388;28;20179;-70
2022/04/21 10:51:38;;;;;;;4.03;2.17;;;;;;;;;;5012339;28;20289;-69
2022/04/21 10:59:48;;;;;;;4.03;1.98;;;;;;;;;;5010513;28;20190;-70
2022/04/21 11:02:13;;;;;;;2.92;1.90;;;;;;;;;;5011544;28;20174;-70
2022/04/21 11:04:38;;;;;;;3.05;1.75;;;;;;;;;;5012582;28;20179;-68
2022/04/21 11:07:05;;;;;;;2.38;1.80;;;;;;;;;;5009420;28;20189;-69
2022/04/21 11:09:37;;;;;;;3.30;1.90;;;;;;;;;;5011258;28;20190;-70
2022/04/21 11:12:04;;;;;;;2.25;1.88;;;;;;;;;;5007634;28;20191;-69
2022/04/21 11:14:31;;;;;;;2.85;1.70;;;;;;;;;;5010893;28;20174;-69
2022/04/21 11:16:57;;;;;;;4.20;1.75;;;;;;;;;;5003730;28;20179;-69
2022/04/21 11:19:28;;;;;;;3.35;1.60;;;;;;;;;;5007243;28;20182;-70
2022/04/21 11:21:53;;;;;;;3.33;2.20;;;;;;;;;;5010871;28;20627;-69
2022/04/21 11:24:18;;;;;;;3.30;2.00;;;;;;;;;;5009632;28;20178;-69
2022/04/21 11:26:43;;;;;;;3.80;1.80;;;;;;;;;;5002118;28;20176;-70
2022/04/21 11:29:09;;;;;;;2.10;1.90;;;;;;;;;;5010178;28;20171;-69
2022/04/21 11:31:34;;;;;;;5.20;1.85;;;;;;;;;;5004839;28;20680;-70
2022/04/21 11:34:01;;;;;;;3.63;2.03;;;;;;;;;;5005380;28;20175;-69
2022/04/21 11:36:33;;;;;;;3.10;2.45;;;;;;;;;;5008552;28;20185;-69
2022/04/21 11:38:58;;;;;;;3.10;1.80;;;;;;;;;;5009531;28;20601;-70
2022/04/21 11:41:24;;;;;;;3.27;1.60;;;;;;;;;;5010826;28;20269;-69
2022/04/21 11:43:49;;;;;;;2.30;1.80;;;;;;;;;;5011539;28;20400;-69
2022/04/21 11:46:15;;;;;;;4.30;2.25;;;;;;;;;;5010089;28;20919;-69
2022/04/21 11:48:40;;;;;;;3.47;1.80;;;;;;;;;;5005324;28;20179;-69
2022/04/21 11:51:10;;;;;;;2.33;1.95;;;;;;;;;;5007011;28;20872;-69
2022/04/21 11:53:42;;;;;;;3.03;2.25;;;;;;;;;;5007694;28;20183;-69
2022/04/21 11:56:09;;;;;;;3.75;2.30;;;;;;;;;;5010108;28;20636;-68
2022/04/21 11:58:36;;;;;;;3.55;2.15;;;;;;;;;;5010544;28;20253;-69
2022/04/21 12:06:53;;;;;;;3.28;2.15;;;;;;;;;;5008801;28;20178;-69
2022/04/21 12:09:19;;;;;;;3.95;2.97;;;;;;;;;;5010280;28;20174;-68
2022/04/21 12:11:50;;;;;;;5.68;2.00;;;;;;;;;;5009509;28;20202;-69
2022/04/21 12:14:18;;;;;;;4.30;2.40;;;;;;;;;;5005597;28;20265;-68
2022/04/21 12:17:16;;;;;;;2.78;2.40;;;;;;;;;;5006696;28;20605;-69
2022/04/21 12:19:44;;;;;;;5.40;2.25;;;;;;;;;;4997091;28;20665;-68
2022/04/21 12:22:16;;;;;;;2.08;1.88;;;;;;;;;;5010201;28;20553;-69
2022/04/21 12:24:42;;;;;;;7.78;3.42;;;;;;;;;;5005399;28;20171;-68
2022/04/21 12:27:17;;;;;;;2.78;2.17;;;;;;;;;;5006884;28;20257;-68
2022/04/21 12:30:01;;;;;;;7.13;2.35;;;;;;;;;;5009031;28;20297;-68
2022/04/21 12:32:27;;;;;;;4.30;2.35;;;;;;;;;;5006809;28;20263;-68
2022/04/21 12:34:56;;;;;;;2.95;2.10;;;;;;;;;;5006173;28;20257;-68
2022/04/21 12:37:28;;;;;;;2.70;1.77;;;;;;;;;;5007200;28;20645;-69
2022/04/21 12:39:54;;;;;;;5.47;2.42;;;;;;;;;;5008495;28;20253;-69
2022/04/21 12:42:19;;;;;;;2.72;2.20;;;;;;;;;;5008222;28;20171;-69
2022/04/21 12:44:45;;;;;;;3.15;2.22;;;;;;;;;;5008702;28;20734;-69
2022/04/21 12:47:17;;;;;;;4.35;2.00;;;;;;;;;;5006847;28;20175;-69
2022/04/21 12:49:58;;;;;;;3.20;2.30;;;;;;;;;;5006137;28;20250;-69
2022/04/21 12:52:32;;;;;;;8.73;2.47;;;;;;;;;;5009371;28;20170;-70
2022/04/21 12:54:58;;;;;;;4.20;2.30;;;;;;;;;;5008852;28;20193;-67
2022/04/21 12:57:23;;;;;;;4.15;2.10;;;;;;;;;;5009756;28;20294;-69
2022/04/21 12:59:48;;;;;;;3.13;1.88;;;;;;;;;;5005326;28;20538;-69
2022/04/21 13:02:14;;;;;;;4.75;2.20;;;;;;;;;;5009433;28;20732;-69
2022/04/21 13:04:39;;;;;;;2.15;1.95;;;;;;;;;;5003459;28;20600;-69
2022/04/21 13:07:04;;;;;;;3.17;1.63;;;;;;;;;;5010306;28;20168;-69
2022/04/21 13:09:31;;;;;;;2.20;2.00;;;;;;;;;;5009957;28;20179;-69
2022/04/21 13:11:56;;;;;;;2.72;1.92;;;;;;;;;;5009594;28;20199;-69
2022/04/21 13:14:22;;;;;;;2.13;1.87;;;;;;;;;;5008182;28;20237;-69
2022/04/21 13:16:47;;;;;;;2.22;1.92;;;;;;;;;;5008842;28;20433;-69
2022/04/21 13:19:12;;;;;;;2.92;1.85;;;;;;;;;;5004311;28;20568;-69
2022/04/21 13:21:52;;;;;;;5.37;1.80;;;;;;;;;;5007120;28;20704;-69
2022/04/21 13:24:27;;;;;;;4.63;1.75;;;;;;;;;;5005680;28;20527;-69
2022/04/21 13:26:52;;;;;;;3.28;2.20;;;;;;;;;;5010284;28;20595;-69
2022/04/21 13:29:18;;;;;;;2.90;1.90;;;;;;;;;;5008173;28;20262;-69
2022/04/21 13:34:27;;;;;;;7.47;1.75;;;;;;;;;;5014465;28;20194;-70
2022/04/21 13:36:53;;;;;;;2.23;1.57;;;;;;;;;;5012146;28;20187;-69
2022/04/21 13:39:18;;;;;;;2.57;1.90;;;;;;;;;;5009586;28;20467;-68
2022/04/21 13:41:43;;;;;;;3.17;1.70;;;;;;;;;;5013097;28;20464;-68
2022/04/21 13:44:08;;;;;;;2.58;1.80;;;;;;;;;;5011862;28;20420;-68
2022/04/21 13:46:35;;;;;;;2.60;2.08;;;;;;;;;;5009108;28;20502;-68
2022/04/21 13:49:00;;;;;;;2.88;1.58;;;;;;;;;;5012860;28;20179;-68
2022/04/21 13:51:25;;;;;;;1.98;1.60;;;;;;;;;;5012319;28;20268;-68
2022/04/21 13:53:51;;;;;;;1.60;1.50;;;;;;;;;;5010351;28;20186;-68
2022/04/21 13:56:16;;;;;;;3.22;1.83;;;;;;;;;;5014691;28;20641;-68
2022/04/21 13:58:42;;;;;;;2.22;2.03;;;;;;;;;;5015130;28;20594;-69
2022/04/21 14:01:07;;;;;;;5.33;2.17;;;;;;;;;;5014770;28;20215;-68
2022/04/21 14:03:36;;;;;;;3.28;2.35;;;;;;;;;;5007945;28;20416;-69
2022/04/21 14:06:01;;;;;;;1.98;1.77;;;;;;;;;;5012335;28;20175;-68
2022/04/21 14:08:27;;;;;;;4.07;2.03;;;;;;;;;;5007216;28;20175;-68
2022/04/21 14:10:52;;;;;;;2.97;2.20;;;;;;;;;;5013932;28;20692;-68
2022/04/21 14:13:18;;;;;;;3.63;2.20;;;;;;;;;;5014188;28;20183;-68
2022/04/21 14:15:43;;;;;;;2.58;2.38;;;;;;;;;;5009092;28;20409;-68
2022/04/21 14:18:08;;;;;;;5.18;2.90;;;;;;;;;;5012392;28;20198;-68
2022/04/21 14:20:34;;;;;;;4.45;2.35;;;;;;;;;;5011564;28;20607;-69
2022/04/21 14:22:59;;;;;;;2.47;2.27;;;;;;;;;;5012919;28;20253;-68
2022/04/21 14:25:24;;;;;;;3.27;2.53;;;;;;;;;;5010582;28;20429;-68
2022/04/21 14:27:49;;;;;;;3.50;2.20;;;;;;;;;;5011462;28;20416;-68
2022/04/21 14:30:14;;;;;;;4.07;3.07;;;;;;;;;;5008339;28;20472;-68
2022/04/21 14:32:41;;;;;;;2.80;2.50;;;;;;;;;;5010915;28;20429;-68
2022/04/21 14:35:06;;;;;;;4.82;2.80;;;;;;;;;;5007661;28;20432;-68
2022/04/21 14:45:43;;;;;;;5.40;3.22;;;;;;;;;;5011504;28;20182;-68
2022/04/21 14:48:09;;;;;;;5.38;3.42;;;;;;;;;;5010642;28;20167;-68
2022/04/21 14:50:34;;;;;;;4.22;2.63;;;;;;;;;;5018132;28;20205;-68
2022/04/21 14:52:59;;;;;;;4.70;2.35;;;;;;;;;;5011519;28;20187;-68
2022/04/21 14:55:24;;;;;;;4.97;2.40;;;;;;;;;;5011578;28;20194;-69
2022/04/21 14:57:50;;;;;;;3.42;3.13;;;;;;;;;;5013638;28;20975;-69
2022/04/21 15:00:15;;;;;;;4.75;3.13;;;;;;;;;;5007340;28;20206;-69
2022/04/21 15:02:40;;;;;;;3.13;2.80;;;;;;;;;;5011115;28;20188;-68
2022/04/21 15:05:06;;;;;;;5.27;3.27;;;;;;;;;;5010186;28;20179;-68
2022/04/21 15:07:31;;;;;;;3.75;3.03;;;;;;;;;;5009833;28;20540;-68
2022/04/21 15:09:56;;;;;;;5.20;2.95;;;;;;;;;;5011394;28;20207;-68
2022/04/21 15:12:22;;;;;;;3.60;3.28;;;;;;;;;;5011186;28;20179;-68
2022/04/21 15:14:47;;;;;;;3.28;2.92;;;;;;;;;;5005289;28;20213;-68
2022/04/21 15:17:12;;;;;;;6.10;3.38;;;;;;;;;;5011314;28;20639;-68
2022/04/21 15:19:37;;;;;;;5.83;3.33;;;;;;;;;;5007322;28;20183;-69
2022/04/21 15:22:03;;;;;;;4.97;3.13;;;;;;;;;;5010604;28;21017;-69
2022/04/21 15:24:32;;;;;;;7.45;3.38;;;;;;;;;;5006639;28;21202;-69
2022/04/21 15:26:57;;;;;;;5.15;3.22;;;;;;;;;;5007879;28;20262;-68
2022/04/21 15:29:23;;;;;;;4.43;2.80;;;;;;;;;;5007657;28;20653;-69
2022/04/21 15:31:49;;;;;;;5.43;3.35;;;;;;;;;;5006574;28;20453;-70
2022/04/21 15:34:14;;;;;;;5.60;3.72;;;;;;;;;;5016037;28;20625;-69
2022/04/21 15:36:42;;;;;;;5.43;3.40;;;;;;;;;;5007296;28;20213;-70
2022/04/21 15:39:08;;;;;;;5.30;3.28;;;;;;;;;;5010089;28;20179;-70
2022/04/21 15:41:33;;;;;;;3.15;2.85;;;;;;;;;;5011380;28;20647;-69